Time;durP1;ratioP1;P1;durP2;ratioP2;P2;SDS_P1;SDS_P2;PMS_P1;PMS_P2;Temp;Humidity;BMP_temperature;BMP_pressure;BME280_temperature;BME280_humidity;BME280_pressure;Samples;Min_cycle;Max_cycle;Signal;HPM_P1;HPM_P2
2024/01/07 00:00:35;;;;;;;;;;;;;;;;;;5091600;28;20049;-51
2024/01/07 00:03:01;;;;;;;;;;;;;;;;;;5089673;28;20017;-50
2024/01/07 00:05:26;;;;;;;;;;;;;;;;;;5094133;28;19912;-53
2024/01/07 00:07:52;;;;;;;;;;;;;;;;;;5088908;28;19912;-52
2024/01/07 00:10:18;;;;;;;;;;;;;;;;;;5090036;28;19916;-51
2024/01/07 00:12:44;;;;;;;;;;;;;;;;;;5089672;28;19916;-57
2024/01/07 00:15:10;;;;;;;;;;;;;;;;;;5092633;28;20005;-51
2024/01/07 00:17:36;;;;;;;;;;;;;;;;;;5092538;28;19920;-50
2024/01/07 00:20:02;;;;;;;;;;;;;;;;;;5092538;28;20007;-52
2024/01/07 00:22:28;;;;;;;;;;;;;;;;;;5091627;28;19916;-52
2024/01/07 00:24:54;;;;;;;;;;;;;;;;;;5089248;28;19920;-54
2024/01/07 00:27:20;;;;;;;;;;;;;;;;;;5091801;28;19995;-53
2024/01/07 00:29:46;;;;;;;;;;;;;;;;;;5080333;28;19927;-51
2024/01/07 00:32:12;;;;;;;;;;;;;;;;;;5093074;28;19951;-51
2024/01/07 00:34:38;;;;;;;;;;;;;;;;;;5090143;28;19957;-53
2024/01/07 00:37:04;;;;;;;;;;;;;;;;;;5086752;28;19916;-52
2024/01/07 00:39:30;;;;;;;;;;;;;;;;;;5084132;28;19912;-52
2024/01/07 00:41:55;;;;;;;;;;;;;;;;;;5077155;28;20008;-53
2024/01/07 00:44:21;;;;;;;;;;;;;;;;;;5090944;28;19920;-51
2024/01/07 00:46:47;;;;;;;;;;;;;;;;;;5079419;28;19912;-52
2024/01/07 00:49:13;;;;;;;;;;;;;;;;;;5080462;28;19912;-53
2024/01/07 00:51:39;;;;;;;;;;;;;;;;;;5084411;28;19944;-52
2024/01/07 00:54:05;;;;;;;;;;;;;;;;;;5079887;28;19957;-53
2024/01/07 00:56:31;;;;;;;;;;;;;;;;;;5091153;28;19992;-52
2024/01/07 00:58:57;;;;;;;;;;;;;;;;;;5078488;28;20012;-52
2024/01/07 01:01:23;;;;;;;;;;;;;;;;;;5089205;28;19913;-51
2024/01/07 01:03:49;;;;;;;;;;;;;;;;;;5082202;28;20074;-53
2024/01/07 01:06:14;;;;;;;;;;;;;;;;;;5084709;28;19916;-52
2024/01/07 01:08:40;;;;;;;;;;;;;;;;;;5088592;28;19923;-54
2024/01/07 01:11:06;;;;;;;;;;;;;;;;;;5070989;28;19995;-53
2024/01/07 01:13:32;;;;;;;;;;;;;;;;;;5076984;28;19964;-52
2024/01/07 01:15:58;;;;;;;;;;;;;;;;;;5088438;28;19965;-52
2024/01/07 01:18:24;;;;;;;;;;;;;;;;;;5088518;28;19916;-53
2024/01/07 01:20:50;;;;;;;;;;;;;;;;;;5091705;28;20012;-51
2024/01/07 01:23:16;;;;;;;;;;;;;;;;;;5092516;28;19947;-57
2024/01/07 01:25:42;;;;;;;;;;;;;;;;;;5081220;28;20018;-57
2024/01/07 01:28:08;;;;;;;;;;;;;;;;;;5079996;28;19926;-57
2024/01/07 01:30:34;;;;;;;;;;;;;;;;;;5091022;28;19982;-57
2024/01/07 01:33:01;;;;;;;;;;;;;;;;;;5091563;28;19909;-57
2024/01/07 01:35:27;;;;;;;;;;;;;;;;;;5091308;28;19935;-52
2024/01/07 01:37:54;;;;;;;;;;;;;;;;;;5091916;28;19911;-57
2024/01/07 01:40:20;;;;;;;;;;;;;;;;;;5086701;28;19919;-57
2024/01/07 01:42:48;;;;;;;;;;;;;;;;;;5083195;28;19959;-57
2024/01/07 01:45:13;;;;;;;;;;;;;;;;;;5082472;28;20295;-57
2024/01/07 01:47:40;;;;;;;;;;;;;;;;;;5086340;28;19916;-56
2024/01/07 01:50:06;;;;;;;;;;;;;;;;;;5091006;28;19920;-57
2024/01/07 01:52:32;;;;;;;;;;;;;;;;;;5091762;28;19966;-57
2024/01/07 01:54:58;;;;;;;;;;;;;;;;;;5091614;28;20379;-57
2024/01/07 01:57:24;;;;;;;;;;;;;;;;;;5083766;28;19912;-57
2024/01/07 01:59:49;;;;;;;;;;;;;;;;;;5087590;28;19966;-57
2024/01/07 02:02:15;;;;;;;;;;;;;;;;;;5092497;28;19912;-55
2024/01/07 02:04:41;;;;;;;;;;;;;;;;;;5089568;28;19913;-55
2024/01/07 02:07:07;;;;;;;;;;;;;;;;;;5073388;28;20433;-57
2024/01/07 02:09:33;;;;;;;;;;;;;;;;;;5074593;28;20003;-57
2024/01/07 02:11:59;;;;;;;;;;;;;;;;;;5084606;28;19909;-57
2024/01/07 02:14:25;;;;;;;;;;;;;;;;;;5090784;28;20036;-57
2024/01/07 02:16:51;;;;;;;;;;;;;;;;;;5091240;28;19908;-57
2024/01/07 02:19:17;;;;;;;;;;;;;;;;;;5094937;28;19951;-57
2024/01/07 02:21:43;;;;;;;;;;;;;;;;;;5089062;28;19916;-57
2024/01/07 02:24:08;;;;;;;;;;;;;;;;;;5095754;28;19915;-58
2024/01/07 02:26:34;;;;;;;;;;;;;;;;;;5095917;28;19925;-57
2024/01/07 02:29:00;;;;;;;;;;;;;;;;;;5094382;28;20006;-57
2024/01/07 02:31:26;;;;;;;;;;;;;;;;;;5095319;28;19912;-57
2024/01/07 02:33:52;;;;;;;;;;;;;;;;;;5090550;28;19962;-51
2024/01/07 02:36:18;;;;;;;;;;;;;;;;;;5096220;28;19908;-53
2024/01/07 02:38:44;;;;;;;;;;;;;;;;;;5092999;28;20348;-51
2024/01/07 02:41:10;;;;;;;;;;;;;;;;;;5095244;28;19915;-53
2024/01/07 02:43:36;;;;;;;;;;;;;;;;;;5093225;28;19977;-51
2024/01/07 02:46:01;;;;;;;;;;;;;;;;;;5091282;28;19944;-51
2024/01/07 02:48:27;;;;;;;;;;;;;;;;;;5091011;28;19921;-53
2024/01/07 02:50:53;;;;;;;;;;;;;;;;;;5074650;28;19913;-53
2024/01/07 02:53:19;;;;;;;;;;;;;;;;;;5076763;28;19964;-53
2024/01/07 02:55:45;;;;;;;;;;;;;;;;;;5094035;28;19920;-53
2024/01/07 02:58:11;;;;;;;;;;;;;;;;;;5091355;28;19958;-52
2024/01/07 03:00:37;;;;;;;;;;;;;;;;;;5093729;28;20287;-50
2024/01/07 03:03:03;;;;;;;;;;;;;;;;;;5095391;28;19922;-53
2024/01/07 03:05:32;;;;;;;;;;;;;;;;;;5089518;28;19912;-53
2024/01/07 03:07:58;;;;;;;;;;;;;;;;;;5083420;28;19916;-51
2024/01/07 03:10:24;;;;;;;;;;;;;;;;;;5086199;28;19963;-52
2024/01/07 03:12:50;;;;;;;;;;;;;;;;;;5091306;28;19912;-52
2024/01/07 03:15:16;;;;;;;;;;;;;;;;;;5093645;28;20433;-51
2024/01/07 03:17:43;;;;;;;;;;;;;;;;;;5092151;28;19912;-52
2024/01/07 03:20:09;;;;;;;;;;;;;;;;;;5094503;28;19916;-53
2024/01/07 03:22:34;;;;;;;;;;;;;;;;;;5094010;28;20457;-53
2024/01/07 03:25:00;;;;;;;;;;;;;;;;;;5094193;28;19919;-53
2024/01/07 03:27:26;;;;;;;;;;;;;;;;;;5094523;28;20271;-52
2024/01/07 03:29:52;;;;;;;;;;;;;;;;;;5092384;28;19920;-54
2024/01/07 03:32:18;;;;;;;;;;;;;;;;;;5094818;28;19915;-51
2024/01/07 03:34:44;;;;;;;;;;;;;;;;;;5079694;28;19956;-53
2024/01/07 03:37:10;;;;;;;;;;;;;;;;;;5076426;28;19908;-50
2024/01/07 03:39:36;;;;;;;;;;;;;;;;;;5091608;28;19912;-49
2024/01/07 03:42:02;;;;;;;;;;;;;;;;;;5093456;28;19989;-52
2024/01/07 03:44:28;;;;;;;;;;;;;;;;;;5089611;28;19950;-56
2024/01/07 03:46:53;;;;;;;;;;;;;;;;;;5093566;28;19955;-55
2024/01/07 03:49:19;;;;;;;;;;;;;;;;;;5085842;28;20276;-57
2024/01/07 03:51:45;;;;;;;;;;;;;;;;;;5086316;28;19918;-58
2024/01/07 03:54:11;;;;;;;;;;;;;;;;;;5081327;28;19912;-57
2024/01/07 03:56:37;;;;;;;;;;;;;;;;;;5093609;28;19935;-57
2024/01/07 03:59:03;;;;;;;;;;;;;;;;;;5094114;28;20003;-57
2024/01/07 04:01:29;;;;;;;;;;;;;;;;;;5088016;28;19951;-57
2024/01/07 04:03:55;;;;;;;;;;;;;;;;;;5094565;28;19911;-57
2024/01/07 04:06:21;;;;;;;;;;;;;;;;;;5092716;28;19920;-56
2024/01/07 04:08:47;;;;;;;;;;;;;;;;;;5085122;28;20689;-57
2024/01/07 04:11:13;;;;;;;;;;;;;;;;;;5093347;28;19996;-57
2024/01/07 04:13:39;;;;;;;;;;;;;;;;;;5092197;28;19912;-58
2024/01/07 04:16:05;;;;;;;;;;;;;;;;;;5091812;28;20439;-56
2024/01/07 04:18:31;;;;;;;;;;;;;;;;;;5083410;28;19917;-56
2024/01/07 04:20:57;;;;;;;;;;;;;;;;;;5092815;28;19912;-57
2024/01/07 04:23:22;;;;;;;;;;;;;;;;;;5088158;28;19963;-57
2024/01/07 04:25:48;;;;;;;;;;;;;;;;;;5083465;28;20325;-57
2024/01/07 04:28:14;;;;;;;;;;;;;;;;;;5090076;28;19935;-55
2024/01/07 04:30:40;;;;;;;;;;;;;;;;;;5089839;28;20002;-57
2024/01/07 04:33:06;;;;;;;;;;;;;;;;;;5087344;28;20344;-58
2024/01/07 04:35:32;;;;;;;;;;;;;;;;;;5091702;28;20333;-57
2024/01/07 04:37:58;;;;;;;;;;;;;;;;;;5088538;28;19944;-58
2024/01/07 04:40:24;;;;;;;;;;;;;;;;;;5075964;28;19916;-57
2024/01/07 04:42:50;;;;;;;;;;;;;;;;;;5086393;28;20014;-57
2024/01/07 04:45:15;;;;;;;;;;;;;;;;;;5089532;28;19912;-57
2024/01/07 04:47:41;;;;;;;;;;;;;;;;;;5091167;28;19919;-57
2024/01/07 04:50:07;;;;;;;;;;;;;;;;;;5086448;28;19951;-58
2024/01/07 04:52:33;;;;;;;;;;;;;;;;;;5077168;28;20008;-57
2024/01/07 04:54:59;;;;;;;;;;;;;;;;;;5078135;28;20372;-54
2024/01/07 04:57:25;;;;;;;;;;;;;;;;;;5089962;28;19955;-55
2024/01/07 04:59:52;;;;;;;;;;;;;;;;;;5092131;28;19952;-56
2024/01/07 05:02:18;;;;;;;;;;;;;;;;;;5088743;28;19916;-55
2024/01/07 05:04:44;;;;;;;;;;;;;;;;;;5085484;28;20362;-56
2024/01/07 05:07:10;;;;;;;;;;;;;;;;;;5083409;28;19912;-55
2024/01/07 05:09:35;;;;;;;;;;;;;;;;;;5088938;28;19915;-56
2024/01/07 05:12:02;;;;;;;;;;;;;;;;;;5091972;28;19950;-57
2024/01/07 05:14:27;;;;;;;;;;;;;;;;;;5088101;28;19969;-55
2024/01/07 05:16:54;;;;;;;;;;;;;;;;;;5087226;28;19958;-56
2024/01/07 05:19:20;;;;;;;;;;;;;;;;;;5092384;28;19986;-56
2024/01/07 05:21:46;;;;;;;;;;;;;;;;;;5088151;28;19937;-56
2024/01/07 05:24:12;;;;;;;;;;;;;;;;;;5085390;28;19920;-56
2024/01/07 05:26:37;;;;;;;;;;;;;;;;;;5090574;28;20050;-57
2024/01/07 05:29:03;;;;;;;;;;;;;;;;;;5092109;28;19977;-57
2024/01/07 05:31:29;;;;;;;;;;;;;;;;;;5091142;28;19912;-55
2024/01/07 05:33:55;;;;;;;;;;;;;;;;;;5085353;28;20399;-55
2024/01/07 05:36:21;;;;;;;;;;;;;;;;;;5091994;28;19919;-56
2024/01/07 05:38:47;;;;;;;;;;;;;;;;;;5090234;28;19912;-55
2024/01/07 05:41:13;;;;;;;;;;;;;;;;;;5087613;28;19931;-54
2024/01/07 05:43:39;;;;;;;;;;;;;;;;;;5089928;28;19975;-57
2024/01/07 05:46:05;;;;;;;;;;;;;;;;;;5091735;28;19912;-56
2024/01/07 05:48:31;;;;;;;;;;;;;;;;;;5091668;28;20406;-54
2024/01/07 05:50:57;;;;;;;;;;;;;;;;;;5089204;28;20455;-55
2024/01/07 05:53:22;;;;;;;;;;;;;;;;;;5091117;28;19948;-55
2024/01/07 05:55:48;;;;;;;;;;;;;;;;;;5090722;28;19930;-55
2024/01/07 05:58:14;;;;;;;;;;;;;;;;;;5088462;28;19920;-56
2024/01/07 06:00:40;;;;;;;;;;;;;;;;;;5086470;28;19955;-56
2024/01/07 06:03:06;;;;;;;;;;;;;;;;;;5087205;28;19920;-57
2024/01/07 06:05:32;;;;;;;;;;;;;;;;;;5087709;28;19963;-58
2024/01/07 06:07:58;;;;;;;;;;;;;;;;;;5086218;28;20295;-57
2024/01/07 06:10:24;;;;;;;;;;;;;;;;;;5087817;28;19912;-57
2024/01/07 06:12:50;;;;;;;;;;;;;;;;;;5087082;28;19919;-57
2024/01/07 06:15:16;;;;;;;;;;;;;;;;;;5075500;28;20388;-57
2024/01/07 06:17:42;;;;;;;;;;;;;;;;;;5088970;28;19968;-58
2024/01/07 06:20:08;;;;;;;;;;;;;;;;;;5090613;28;19912;-58
2024/01/07 06:22:34;;;;;;;;;;;;;;;;;;5089899;28;20018;-58
2024/01/07 06:24:59;;;;;;;;;;;;;;;;;;5088169;28;20003;-57
2024/01/07 06:27:25;;;;;;;;;;;;;;;;;;5084843;28;20390;-57
2024/01/07 06:29:51;;;;;;;;;;;;;;;;;;5087288;28;19966;-57
2024/01/07 06:32:17;;;;;;;;;;;;;;;;;;5091396;28;20368;-57
2024/01/07 06:34:43;;;;;;;;;;;;;;;;;;5087882;28;19935;-57
2024/01/07 06:37:10;;;;;;;;;;;;;;;;;;5091563;28;19998;-58
2024/01/07 06:39:36;;;;;;;;;;;;;;;;;;5085734;28;19994;-56
2024/01/07 06:42:02;;;;;;;;;;;;;;;;;;5086217;28;20043;-57
2024/01/07 06:44:28;;;;;;;;;;;;;;;;;;5085430;28;19999;-58
2024/01/07 06:46:53;;;;;;;;;;;;;;;;;;5091305;28;19916;-57
2024/01/07 06:49:19;;;;;;;;;;;;;;;;;;5090557;28;19965;-56
2024/01/07 06:51:45;;;;;;;;;;;;;;;;;;5083284;28;19999;-57
2024/01/07 06:54:11;;;;;;;;;;;;;;;;;;5090278;28;19918;-57
2024/01/07 06:56:37;;;;;;;;;;;;;;;;;;5087380;28;19958;-57
2024/01/07 06:59:03;;;;;;;;;;;;;;;;;;5088148;28;19912;-57
2024/01/07 07:01:29;;;;;;;;;;;;;;;;;;5082592;28;19912;-58
2024/01/07 07:03:55;;;;;;;;;;;;;;;;;;5093795;28;20438;-57
2024/01/07 07:06:21;;;;;;;;;;;;;;;;;;5094488;28;19912;-57
2024/01/07 07:08:47;;;;;;;;;;;;;;;;;;5090829;28;20334;-57
2024/01/07 07:11:12;;;;;;;;;;;;;;;;;;5090407;28;19969;-57
2024/01/07 07:13:38;;;;;;;;;;;;;;;;;;5086560;28;19912;-57
2024/01/07 07:16:04;;;;;;;;;;;;;;;;;;5091273;28;20387;-57
2024/01/07 07:18:30;;;;;;;;;;;;;;;;;;5092059;28;19912;-57
2024/01/07 07:20:56;;;;;;;;;;;;;;;;;;5093041;28;19974;-57
2024/01/07 07:23:22;;;;;;;;;;;;;;;;;;5091880;28;19916;-57
2024/01/07 07:25:48;;;;;;;;;;;;;;;;;;5093483;28;19920;-57
2024/01/07 07:28:14;;;;;;;;;;;;;;;;;;5092222;28;20015;-57
2024/01/07 07:30:40;;;;;;;;;;;;;;;;;;5090163;28;19916;-57
2024/01/07 07:33:05;;;;;;;;;;;;;;;;;;5088938;28;19944;-57
2024/01/07 07:35:31;;;;;;;;;;;;;;;;;;5087640;28;19912;-56
2024/01/07 07:37:57;;;;;;;;;;;;;;;;;;5093474;28;20646;-57
2024/01/07 07:40:23;;;;;;;;;;;;;;;;;;5085593;28;19923;-57
2024/01/07 07:42:49;;;;;;;;;;;;;;;;;;5090988;28;19920;-57
2024/01/07 07:45:15;;;;;;;;;;;;;;;;;;5093618;28;19912;-57
2024/01/07 07:47:44;;;;;;;;;;;;;;;;;;5089838;28;20011;-56
2024/01/07 07:50:10;;;;;;;;;;;;;;;;;;5083362;28;20295;-56
2024/01/07 07:52:36;;;;;;;;;;;;;;;;;;5093440;28;19918;-56
2024/01/07 07:55:02;;;;;;;;;;;;;;;;;;5091883;28;20441;-57
2024/01/07 07:57:28;;;;;;;;;;;;;;;;;;5090470;28;19912;-57
2024/01/07 07:59:54;;;;;;;;;;;;;;;;;;5090670;28;20534;-57
2024/01/07 08:02:20;;;;;;;;;;;;;;;;;;5079240;28;19966;-57
2024/01/07 08:04:46;;;;;;;;;;;;;;;;;;5081130;28;19920;-57
2024/01/07 08:07:12;;;;;;;;;;;;;;;;;;5093165;28;19908;-57
2024/01/07 08:09:38;;;;;;;;;;;;;;;;;;5092257;28;20329;-56
2024/01/07 08:12:04;;;;;;;;;;;;;;;;;;5092187;28;19926;-56
2024/01/07 08:14:30;;;;;;;;;;;;;;;;;;5091647;28;20284;-57
2024/01/07 08:16:56;;;;;;;;;;;;;;;;;;5082785;28;19916;-57
2024/01/07 08:19:22;;;;;;;;;;;;;;;;;;5078910;28;19997;-57
2024/01/07 08:21:47;;;;;;;;;;;;;;;;;;5085532;28;19991;-56
2024/01/07 08:24:13;;;;;;;;;;;;;;;;;;5092720;28;19912;-57
2024/01/07 08:26:39;;;;;;;;;;;;;;;;;;5089776;28;19938;-55
2024/01/07 08:29:05;;;;;;;;;;;;;;;;;;5087100;28;19927;-56
2024/01/07 08:31:31;;;;;;;;;;;;;;;;;;5092603;28;19912;-57
2024/01/07 08:33:57;;;;;;;;;;;;;;;;;;5084733;28;19916;-56
2024/01/07 08:36:23;;;;;;;;;;;;;;;;;;5082036;28;19908;-55
2024/01/07 08:38:49;;;;;;;;;;;;;;;;;;5076776;28;19942;-56
2024/01/07 08:41:15;;;;;;;;;;;;;;;;;;5085751;28;19951;-56
2024/01/07 08:43:41;;;;;;;;;;;;;;;;;;5090218;28;19986;-56
2024/01/07 08:46:07;;;;;;;;;;;;;;;;;;5087251;28;19916;-56
2024/01/07 08:48:33;;;;;;;;;;;;;;;;;;5091600;28;19919;-56
2024/01/07 08:50:59;;;;;;;;;;;;;;;;;;5091392;28;20300;-55
2024/01/07 08:53:25;;;;;;;;;;;;;;;;;;5090494;28;19923;-54
2024/01/07 08:55:51;;;;;;;;;;;;;;;;;;5089307;28;19951;-56
2024/01/07 08:58:17;;;;;;;;;;;;;;;;;;5092186;28;19963;-56
2024/01/07 09:00:43;;;;;;;;;;;;;;;;;;5087258;28;20000;-56
2024/01/07 09:03:09;;;;;;;;;;;;;;;;;;5091685;28;20436;-56
2024/01/07 09:05:34;;;;;;;;;;;;;;;;;;5092116;28;19995;-56
2024/01/07 09:08:00;;;;;;;;;;;;;;;;;;5078952;28;19934;-54
2024/01/07 09:10:26;;;;;;;;;;;;;;;;;;5088679;28;19908;-56
2024/01/07 09:12:53;;;;;;;;;;;;;;;;;;5081115;28;20296;-56
2024/01/07 09:15:19;;;;;;;;;;;;;;;;;;5088599;28;20342;-56
2024/01/07 09:17:45;;;;;;;;;;;;;;;;;;5084784;28;19916;-55
2024/01/07 09:20:11;;;;;;;;;;;;;;;;;;5091151;28;20317;-55
2024/01/07 09:22:37;;;;;;;;;;;;;;;;;;5091835;28;19950;-56
2024/01/07 09:25:03;;;;;;;;;;;;;;;;;;5090918;28;20324;-56
2024/01/07 09:27:29;;;;;;;;;;;;;;;;;;5084293;28;20318;-55
2024/01/07 09:29:55;;;;;;;;;;;;;;;;;;5090160;28;19920;-55
2024/01/07 09:32:21;;;;;;;;;;;;;;;;;;5090856;28;20002;-55
2024/01/07 09:34:47;;;;;;;;;;;;;;;;;;5089524;28;19947;-53
2024/01/07 09:37:13;;;;;;;;;;;;;;;;;;5083907;28;19955;-50
2024/01/07 09:39:40;;;;;;;;;;;;;;;;;;5081368;28;19920;-53
2024/01/07 09:42:06;;;;;;;;;;;;;;;;;;5082791;28;20261;-52
2024/01/07 09:44:32;;;;;;;;;;;;;;;;;;5086600;28;19951;-50
2024/01/07 09:46:57;;;;;;;;;;;;;;;;;;5089352;28;19923;-54
2024/01/07 09:49:23;;;;;;;;;;;;;;;;;;5085585;28;19920;-52
2024/01/07 09:51:49;;;;;;;;;;;;;;;;;;5082469;28;19926;-53
2024/01/07 09:54:16;;;;;;;;;;;;;;;;;;5090663;28;19954;-53
2024/01/07 09:56:42;;;;;;;;;;;;;;;;;;5088437;28;19976;-56
2024/01/07 09:59:08;;;;;;;;;;;;;;;;;;5087856;28;19969;-53
2024/01/07 10:01:35;;;;;;;;;;;;;;;;;;5080341;28;19971;-53
2024/01/07 10:04:01;;;;;;;;;;;;;;;;;;5082462;28;19943;-53
2024/01/07 10:06:27;;;;;;;;;;;;;;;;;;5087957;28;19940;-51
2024/01/07 10:08:53;;;;;;;;;;;;;;;;;;5085015;28;19980;-52
2024/01/07 10:11:19;;;;;;;;;;;;;;;;;;5077844;28;19954;-53
2024/01/07 10:13:45;;;;;;;;;;;;;;;;;;5082083;28;20267;-53
2024/01/07 10:16:10;;;;;;;;;;;;;;;;;;5085784;28;20376;-53
2024/01/07 10:18:36;;;;;;;;;;;;;;;;;;5085990;28;19951;-51
2024/01/07 10:21:03;;;;;;;;;;;;;;;;;;5085683;28;19916;-52
2024/01/07 10:23:29;;;;;;;;;;;;;;;;;;5084946;28;19928;-51
2024/01/07 10:25:57;;;;;;;;;;;;;;;;;;5083626;28;19916;-53
2024/01/07 10:28:22;;;;;;;;;;;;;;;;;;5076506;28;20272;-53
2024/01/07 10:30:48;;;;;;;;;;;;;;;;;;5084616;28;19920;-52
2024/01/07 10:33:14;;;;;;;;;;;;;;;;;;5078242;28;19926;-53
2024/01/07 10:35:40;;;;;;;;;;;;;;;;;;5082733;28;19965;-51
2024/01/07 10:38:06;;;;;;;;;;;;;;;;;;5081588;28;19959;-53
2024/01/07 10:40:34;;;;;;;;;;;;;;;;;;5082163;28;20043;-52
2024/01/07 10:43:00;;;;;;;;;;;;;;;;;;5084949;28;19923;-56
2024/01/07 10:45:26;;;;;;;;;;;;;;;;;;5083817;28;20344;-52
2024/01/07 10:47:51;;;;;;;;;;;;;;;;;;5085424;28;19966;-52
2024/01/07 10:50:17;;;;;;;;;;;;;;;;;;5084250;28;20003;-52
2024/01/07 10:52:43;;;;;;;;;;;;;;;;;;5084964;28;19993;-54
2024/01/07 10:55:10;;;;;;;;;;;;;;;;;;5083869;28;20273;-53
2024/01/07 10:57:36;;;;;;;;;;;;;;;;;;5084323;28;19917;-53
2024/01/07 11:00:06;;;;;;;;;;;;;;;;;;5082954;28;19924;-51
2024/01/07 11:02:32;;;;;;;;;;;;;;;;;;5084633;28;19926;-54
2024/01/07 11:04:58;;;;;;;;;;;;;;;;;;5084117;28;19916;-52
2024/01/07 11:07:24;;;;;;;;;;;;;;;;;;5086916;28;20008;-51
2024/01/07 11:09:50;;;;;;;;;;;;;;;;;;5089783;28;19919;-52
2024/01/07 11:12:16;;;;;;;;;;;;;;;;;;5082885;28;19970;-50
2024/01/07 11:14:47;;;;;;;;;;;;;;;;;;5082225;28;19965;-53
2024/01/07 11:17:13;;;;;;;;;;;;;;;;;;5085642;28;19920;-52
2024/01/07 11:19:39;;;;;;;;;;;;;;;;;;5084849;28;19929;-55
2024/01/07 11:22:05;;;;;;;;;;;;;;;;;;5081195;28;19948;-53
2024/01/07 11:24:31;;;;;;;;;;;;;;;;;;5082958;28;19916;-50
2024/01/07 11:26:57;;;;;;;;;;;;;;;;;;5084571;28;19959;-51
2024/01/07 11:29:22;;;;;;;;;;;;;;;;;;5084682;28;20338;-53
2024/01/07 11:31:50;;;;;;;;;;;;;;;;;;5084103;28;19970;-51
2024/01/07 11:34:16;;;;;;;;;;;;;;;;;;5085050;28;19912;-53
2024/01/07 11:36:42;;;;;;;;;;;;;;;;;;5085892;28;19912;-53
2024/01/07 11:39:08;;;;;;;;;;;;;;;;;;5082795;28;19916;-54
2024/01/07 11:41:34;;;;;;;;;;;;;;;;;;5082062;28;19912;-55
2024/01/07 11:44:00;;;;;;;;;;;;;;;;;;5086543;28;20110;-53
2024/01/07 11:46:26;;;;;;;;;;;;;;;;;;5082467;28;19920;-52
2024/01/07 11:48:52;;;;;;;;;;;;;;;;;;5084832;28;21187;-52
2024/01/07 11:51:18;;;;;;;;;;;;;;;;;;5091458;28;19915;-52
2024/01/07 11:53:44;;;;;;;;;;;;;;;;;;5089310;28;20391;-56
2024/01/07 11:56:10;;;;;;;;;;;;;;;;;;5088895;28;19972;-56
2024/01/07 11:58:36;;;;;;;;;;;;;;;;;;5091654;28;20279;-55
2024/01/07 12:01:03;;;;;;;;;;;;;;;;;;5085590;28;20404;-57
2024/01/07 12:03:29;;;;;;;;;;;;;;;;;;5092688;28;19958;-56
2024/01/07 12:05:54;;;;;;;;;;;;;;;;;;5093477;28;19987;-56
2024/01/07 12:08:20;;;;;;;;;;;;;;;;;;5092668;28;20010;-56
2024/01/07 12:10:46;;;;;;;;;;;;;;;;;;5081527;28;19919;-56
2024/01/07 12:13:12;;;;;;;;;;;;;;;;;;5082325;28;19924;-55
2024/01/07 12:15:38;;;;;;;;;;;;;;;;;;5090192;28;20030;-55
2024/01/07 12:18:04;;;;;;;;;;;;;;;;;;5090401;28;19955;-56
2024/01/07 12:20:30;;;;;;;;;;;;;;;;;;5091195;28;19951;-54
2024/01/07 12:22:56;;;;;;;;;;;;;;;;;;5089230;28;19973;-51
2024/01/07 12:25:25;;;;;;;;;;;;;;;;;;5089696;28;20346;-55
2024/01/07 12:27:52;;;;;;;;;;;;;;;;;;5087717;28;20345;-56
2024/01/07 12:30:18;;;;;;;;;;;;;;;;;;5092553;28;19942;-55
2024/01/07 12:32:45;;;;;;;;;;;;;;;;;;5091732;28;20360;-56
2024/01/07 12:35:10;;;;;;;;;;;;;;;;;;5089993;28;19912;-56
2024/01/07 12:37:37;;;;;;;;;;;;;;;;;;5092281;28;19912;-55
2024/01/07 12:40:02;;;;;;;;;;;;;;;;;;5091668;28;19977;-55
2024/01/07 12:42:28;;;;;;;;;;;;;;;;;;5091947;28;20360;-56
2024/01/07 12:44:54;;;;;;;;;;;;;;;;;;5084481;28;19922;-56
2024/01/07 12:47:20;;;;;;;;;;;;;;;;;;5090449;28;19912;-56
2024/01/07 12:49:46;;;;;;;;;;;;;;;;;;5080835;28;19913;-55
2024/01/07 12:52:12;;;;;;;;;;;;;;;;;;5083474;28;19963;-55
2024/01/07 12:54:38;;;;;;;;;;;;;;;;;;5092323;28;19916;-55
2024/01/07 12:57:04;;;;;;;;;;;;;;;;;;5092547;28;20066;-54
2024/01/07 12:59:30;;;;;;;;;;;;;;;;;;5090046;28;19958;-55
2024/01/07 13:01:55;;;;;;;;;;;;;;;;;;5085084;28;20400;-54
2024/01/07 13:04:21;;;;;;;;;;;;;;;;;;5092454;28;19950;-57
2024/01/07 13:06:47;;;;;;;;;;;;;;;;;;5087348;28;19995;-57
2024/01/07 13:09:13;;;;;;;;;;;;;;;;;;5089665;28;20400;-55
2024/01/07 13:11:39;;;;;;;;;;;;;;;;;;5082258;28;19923;-57
2024/01/07 13:14:05;;;;;;;;;;;;;;;;;;5088986;28;19916;-56
2024/01/07 13:16:31;;;;;;;;;;;;;;;;;;5090406;28;19916;-58
2024/01/07 13:18:57;;;;;;;;;;;;;;;;;;5090568;28;20329;-57
2024/01/07 13:21:23;;;;;;;;;;;;;;;;;;5074546;28;19991;-57
2024/01/07 13:23:49;;;;;;;;;;;;;;;;;;5084385;28;19930;-57
2024/01/07 13:26:15;;;;;;;;;;;;;;;;;;5089236;28;19955;-57
2024/01/07 13:28:41;;;;;;;;;;;;;;;;;;5090613;28;20009;-57
2024/01/07 13:31:07;;;;;;;;;;;;;;;;;;5091016;28;20356;-56
2024/01/07 13:33:33;;;;;;;;;;;;;;;;;;5085331;28;20253;-56
2024/01/07 13:35:59;;;;;;;;;;;;;;;;;;5080619;28;19919;-57
2024/01/07 13:38:25;;;;;;;;;;;;;;;;;;5076360;28;19954;-55
2024/01/07 13:40:51;;;;;;;;;;;;;;;;;;5087852;28;19943;-57
2024/01/07 13:43:16;;;;;;;;;;;;;;;;;;5088540;28;19967;-57
2024/01/07 13:45:42;;;;;;;;;;;;;;;;;;5090103;28;19919;-57
2024/01/07 13:48:08;;;;;;;;;;;;;;;;;;5086859;28;19944;-56
2024/01/07 13:50:34;;;;;;;;;;;;;;;;;;5085210;28;20403;-57
2024/01/07 13:53:00;;;;;;;;;;;;;;;;;;5090452;28;20006;-57
2024/01/07 13:55:26;;;;;;;;;;;;;;;;;;5074686;28;19981;-57
2024/01/07 13:57:52;;;;;;;;;;;;;;;;;;5076801;28;19999;-57
2024/01/07 14:00:18;;;;;;;;;;;;;;;;;;5084184;28;20001;-57
2024/01/07 14:02:45;;;;;;;;;;;;;;;;;;5090526;28;19914;-57
2024/01/07 14:05:11;;;;;;;;;;;;;;;;;;5086317;28;19995;-57
2024/01/07 14:07:37;;;;;;;;;;;;;;;;;;5074927;28;19919;-57
2024/01/07 14:10:04;;;;;;;;;;;;;;;;;;5085293;28;20280;-57
2024/01/07 14:12:30;;;;;;;;;;;;;;;;;;5089765;28;19919;-58
2024/01/07 14:14:56;;;;;;;;;;;;;;;;;;5088518;28;19912;-57
2024/01/07 14:17:22;;;;;;;;;;;;;;;;;;5093932;28;19955;-56
2024/01/07 14:19:50;;;;;;;;;;;;;;;;;;5094336;28;20327;-56
2024/01/07 14:22:16;;;;;;;;;;;;;;;;;;5094512;28;19928;-56
2024/01/07 14:24:42;;;;;;;;;;;;;;;;;;5093604;28;19958;-56
2024/01/07 14:27:08;;;;;;;;;;;;;;;;;;5095311;28;20022;-56
2024/01/07 14:29:34;;;;;;;;;;;;;;;;;;5091752;28;20003;-56
2024/01/07 14:32:01;;;;;;;;;;;;;;;;;;5091020;28;19998;-56
2024/01/07 14:34:27;;;;;;;;;;;;;;;;;;5089273;28;19912;-55
2024/01/07 14:36:53;;;;;;;;;;;;;;;;;;5088794;28;20354;-56
2024/01/07 14:39:19;;;;;;;;;;;;;;;;;;5094094;28;19955;-55
2024/01/07 14:41:46;;;;;;;;;;;;;;;;;;5095756;28;19916;-56
2024/01/07 14:44:12;;;;;;;;;;;;;;;;;;5095418;28;19916;-55
2024/01/07 14:46:38;;;;;;;;;;;;;;;;;;5092901;28;19923;-55
2024/01/07 14:49:04;;;;;;;;;;;;;;;;;;5089259;28;20300;-55
2024/01/07 14:51:31;;;;;;;;;;;;;;;;;;5095075;28;19958;-55
2024/01/07 14:53:57;;;;;;;;;;;;;;;;;;5094876;28;20292;-55
2024/01/07 14:56:23;;;;;;;;;;;;;;;;;;5088011;28;19999;-54
2024/01/07 14:58:49;;;;;;;;;;;;;;;;;;5086803;28;19943;-56
2024/01/07 15:01:14;;;;;;;;;;;;;;;;;;5092828;28;20007;-55
2024/01/07 15:03:40;;;;;;;;;;;;;;;;;;5084974;28;20364;-56
2024/01/07 15:06:08;;;;;;;;;;;;;;;;;;5089301;28;19961;-56
2024/01/07 15:08:35;;;;;;;;;;;;;;;;;;5090540;28;19912;-55
2024/01/07 15:11:01;;;;;;;;;;;;;;;;;;5090646;28;19913;-55
2024/01/07 15:13:29;;;;;;;;;;;;;;;;;;5092677;28;19940;-55
2024/01/07 15:15:54;;;;;;;;;;;;;;;;;;5093838;28;19912;-53
2024/01/07 15:18:20;;;;;;;;;;;;;;;;;;5094321;28;20002;-56
2024/01/07 15:20:46;;;;;;;;;;;;;;;;;;5091332;28;19951;-56
2024/01/07 15:23:12;;;;;;;;;;;;;;;;;;5094274;28;20390;-57
2024/01/07 15:25:38;;;;;;;;;;;;;;;;;;5093059;28;20508;-57
2024/01/07 15:28:04;;;;;;;;;;;;;;;;;;5093392;28;19924;-57
2024/01/07 15:30:30;;;;;;;;;;;;;;;;;;5092891;28;19948;-57
2024/01/07 15:32:56;;;;;;;;;;;;;;;;;;5093367;28;19955;-58
2024/01/07 15:35:24;;;;;;;;;;;;;;;;;;5078649;28;21514;-58
2024/01/07 15:37:50;;;;;;;;;;;;;;;;;;5087526;28;19966;-57
2024/01/07 15:40:16;;;;;;;;;;;;;;;;;;5081702;28;19920;-58
2024/01/07 15:42:42;;;;;;;;;;;;;;;;;;5089034;28;20434;-57
2024/01/07 15:45:09;;;;;;;;;;;;;;;;;;5091937;28;20014;-58
2024/01/07 15:47:35;;;;;;;;;;;;;;;;;;5090854;28;20323;-58
2024/01/07 15:50:01;;;;;;;;;;;;;;;;;;5085299;28;20435;-58
2024/01/07 15:52:27;;;;;;;;;;;;;;;;;;5093321;28;19934;-58
2024/01/07 15:54:53;;;;;;;;;;;;;;;;;;5089424;28;19908;-57
2024/01/07 15:57:19;;;;;;;;;;;;;;;;;;5093964;28;19943;-55
2024/01/07 15:59:45;;;;;;;;;;;;;;;;;;5091634;28;20384;-57
2024/01/07 16:02:11;;;;;;;;;;;;;;;;;;5093412;28;19918;-57
2024/01/07 16:04:37;;;;;;;;;;;;;;;;;;5086924;28;19970;-56
2024/01/07 16:07:03;;;;;;;;;;;;;;;;;;5088887;28;19913;-58
2024/01/07 16:09:31;;;;;;;;;;;;;;;;;;5084246;28;19958;-57
2024/01/07 16:11:57;;;;;;;;;;;;;;;;;;5091299;28;20334;-57
2024/01/07 16:14:24;;;;;;;;;;;;;;;;;;5091860;28;19962;-58
2024/01/07 16:16:50;;;;;;;;;;;;;;;;;;5090233;28;19916;-58
2024/01/07 16:19:16;;;;;;;;;;;;;;;;;;5092445;28;19916;-57
2024/01/07 16:21:42;;;;;;;;;;;;;;;;;;5092154;28;20006;-55
2024/01/07 16:24:08;;;;;;;;;;;;;;;;;;5090743;28;19926;-57
2024/01/07 16:26:34;;;;;;;;;;;;;;;;;;5090759;28;19959;-60
2024/01/07 16:29:00;;;;;;;;;;;;;;;;;;5088312;28;19982;-56
2024/01/07 16:31:26;;;;;;;;;;;;;;;;;;5091960;28;20007;-58
2024/01/07 16:33:53;;;;;;;;;;;;;;;;;;5092103;28;19918;-58
2024/01/07 16:36:19;;;;;;;;;;;;;;;;;;5090389;28;19916;-58